sensor_id;sensor_type;location;lat;lon;timestamp;P1;durP1;ratioP1;P2;durP2;ratioP2
73893;SDS011;62699;50.534;12.784;2024-02-26T00:02:54;14.68;;;7.65;;
73893;SDS011;62699;50.534;12.784;2024-02-26T00:07:54;18.13;;;8.45;;
73893;SDS011;62699;50.534;12.784;2024-02-26T00:12:56;13.60;;;7.82;;
73893;SDS011;62699;50.534;12.784;2024-02-26T00:17:56;18.02;;;8.70;;
73893;SDS011;62699;50.534;12.784;2024-02-26T00:22:56;17.38;;;8.43;;
73893;SDS011;62699;50.534;12.784;2024-02-26T00:27:56;16.80;;;8.85;;
73893;SDS011;62699;50.534;12.784;2024-02-26T00:32:57;18.30;;;8.88;;
73893;SDS011;62699;50.534;12.784;2024-02-26T00:37:58;16.20;;;8.65;;
73893;SDS011;62699;50.534;12.784;2024-02-26T00:42:59;14.88;;;7.97;;
73893;SDS011;62699;50.534;12.784;2024-02-26T00:48:00;15.32;;;8.73;;
73893;SDS011;62699;50.534;12.784;2024-02-26T00:53:04;14.63;;;8.00;;
73893;SDS011;62699;50.534;12.784;2024-02-26T00:58:04;13.35;;;7.30;;
73893;SDS011;62699;50.534;12.784;2024-02-26T01:03:05;13.65;;;8.23;;
73893;SDS011;62699;50.534;12.784;2024-02-26T01:08:05;18.98;;;8.73;;
73893;SDS011;62699;50.534;12.784;2024-02-26T01:13:05;19.67;;;8.57;;
73893;SDS011;62699;50.534;12.784;2024-02-26T01:18:07;18.33;;;8.65;;
73893;SDS011;62699;50.534;12.784;2024-02-26T01:23:07;15.77;;;8.27;;
73893;SDS011;62699;50.534;12.784;2024-02-26T01:28:08;18.60;;;8.08;;
73893;SDS011;62699;50.534;12.784;2024-02-26T01:33:08;18.55;;;8.95;;
73893;SDS011;62699;50.534;12.784;2024-02-26T01:38:08;17.50;;;7.47;;
73893;SDS011;62699;50.534;12.784;2024-02-26T01:43:08;15.23;;;8.55;;
73893;SDS011;62699;50.534;12.784;2024-02-26T01:48:09;17.30;;;8.10;;
73893;SDS011;62699;50.534;12.784;2024-02-26T01:53:10;18.20;;;8.50;;
73893;SDS011;62699;50.534;12.784;2024-02-26T01:58:11;15.88;;;8.30;;
73893;SDS011;62699;50.534;12.784;2024-02-26T02:03:12;18.92;;;7.82;;
73893;SDS011;62699;50.534;12.784;2024-02-26T02:08:12;17.88;;;7.82;;
73893;SDS011;62699;50.534;12.784;2024-02-26T02:13:14;14.18;;;7.07;;
73893;SDS011;62699;50.534;12.784;2024-02-26T02:18:14;15.23;;;8.02;;
73893;SDS011;62699;50.534;12.784;2024-02-26T02:23:14;15.65;;;8.23;;
73893;SDS011;62699;50.534;12.784;2024-02-26T02:28:15;16.08;;;8.43;;
73893;SDS011;62699;50.534;12.784;2024-02-26T02:33:15;13.95;;;7.55;;
73893;SDS011;62699;50.534;12.784;2024-02-26T02:38:16;14.90;;;8.05;;
73893;SDS011;62699;50.534;12.784;2024-02-26T02:43:16;16.00;;;8.15;;
73893;SDS011;62699;50.534;12.784;2024-02-26T02:48:17;15.80;;;8.32;;
73893;SDS011;62699;50.534;12.784;2024-02-26T02:53:17;19.17;;;8.20;;
73893;SDS011;62699;50.534;12.784;2024-02-26T02:58:18;15.52;;;7.65;;
73893;SDS011;62699;50.534;12.784;2024-02-26T03:03:18;17.58;;;8.27;;
73893;SDS011;62699;50.534;12.784;2024-02-26T03:08:18;15.02;;;8.43;;
73893;SDS011;62699;50.534;12.784;2024-02-26T03:13:19;17.58;;;7.85;;
73893;SDS011;62699;50.534;12.784;2024-02-26T03:18:19;15.85;;;7.15;;
73893;SDS011;62699;50.534;12.784;2024-02-26T03:23:19;17.50;;;8.15;;
73893;SDS011;62699;50.534;12.784;2024-02-26T03:28:21;17.02;;;8.48;;
73893;SDS011;62699;50.534;12.784;2024-02-26T03:33:21;16.70;;;7.80;;
73893;SDS011;62699;50.534;12.784;2024-02-26T03:38:21;13.32;;;6.85;;
73893;SDS011;62699;50.534;12.784;2024-02-26T03:43:22;14.60;;;6.82;;
73893;SDS011;62699;50.534;12.784;2024-02-26T03:48:22;13.35;;;7.68;;
73893;SDS011;62699;50.534;12.784;2024-02-26T03:53:23;12.90;;;6.56;;
73893;SDS011;62699;50.534;12.784;2024-02-26T03:58:23;14.55;;;6.40;;
73893;SDS011;62699;50.534;12.784;2024-02-26T04:03:25;12.00;;;6.10;;
73893;SDS011;62699;50.534;12.784;2024-02-26T04:08:25;11.88;;;5.88;;
73893;SDS011;62699;50.534;12.784;2024-02-26T04:13:25;16.45;;;7.25;;
73893;SDS011;62699;50.534;12.784;2024-02-26T04:18:26;13.85;;;6.32;;
73893;SDS011;62699;50.534;12.784;2024-02-26T04:23:26;15.75;;;6.32;;
73893;SDS011;62699;50.534;12.784;2024-02-26T04:28:26;13.90;;;6.47;;
73893;SDS011;62699;50.534;12.784;2024-02-26T04:33:29;12.68;;;6.72;;
73893;SDS011;62699;50.534;12.784;2024-02-26T04:38:29;11.70;;;6.13;;
73893;SDS011;62699;50.534;12.784;2024-02-26T04:43:29;15.60;;;6.03;;
73893;SDS011;62699;50.534;12.784;2024-02-26T04:48:29;13.00;;;6.72;;
73893;SDS011;62699;50.534;12.784;2024-02-26T04:53:29;14.15;;;6.80;;
73893;SDS011;62699;50.534;12.784;2024-02-26T04:58:30;15.95;;;5.65;;
73893;SDS011;62699;50.534;12.784;2024-02-26T05:03:30;14.60;;;6.60;;
73893;SDS011;62699;50.534;12.784;2024-02-26T05:08:31;14.55;;;5.75;;
73893;SDS011;62699;50.534;12.784;2024-02-26T05:13:31;13.27;;;6.20;;
73893;SDS011;62699;50.534;12.784;2024-02-26T05:18:32;12.75;;;5.57;;
73893;SDS011;62699;50.534;12.784;2024-02-26T05:23:32;14.32;;;5.68;;
73893;SDS011;62699;50.534;12.784;2024-02-26T05:28:32;17.40;;;6.47;;
73893;SDS011;62699;50.534;12.784;2024-02-26T05:33:32;11.50;;;5.07;;
73893;SDS011;62699;50.534;12.784;2024-02-26T05:38:32;10.63;;;5.82;;
73893;SDS011;62699;50.534;12.784;2024-02-26T05:43:33;11.23;;;5.72;;
73893;SDS011;62699;50.534;12.784;2024-02-26T05:48:33;14.13;;;5.07;;
73893;SDS011;62699;50.534;12.784;2024-02-26T05:53:33;13.10;;;5.75;;
73893;SDS011;62699;50.534;12.784;2024-02-26T05:58:34;13.27;;;6.53;;
73893;SDS011;62699;50.534;12.784;2024-02-26T06:03:34;12.68;;;6.47;;
73893;SDS011;62699;50.534;12.784;2024-02-26T06:08:34;14.55;;;5.82;;
73893;SDS011;62699;50.534;12.784;2024-02-26T06:13:34;12.88;;;6.07;;
73893;SDS011;62699;50.534;12.784;2024-02-26T06:18:35;16.55;;;8.63;;
73893;SDS011;62699;50.534;12.784;2024-02-26T06:23:35;13.32;;;7.68;;
73893;SDS011;62699;50.534;12.784;2024-02-26T06:28:35;14.77;;;6.13;;
73893;SDS011;62699;50.534;12.784;2024-02-26T06:33:36;17.68;;;10.20;;
73893;SDS011;62699;50.534;12.784;2024-02-26T06:38:36;15.73;;;6.82;;
73893;SDS011;62699;50.534;12.784;2024-02-26T06:43:36;12.32;;;5.57;;
73893;SDS011;62699;50.534;12.784;2024-02-26T06:48:37;11.68;;;5.32;;
73893;SDS011;62699;50.534;12.784;2024-02-26T06:53:37;18.98;;;6.90;;
73893;SDS011;62699;50.534;12.784;2024-02-26T06:58:37;11.38;;;5.25;;
73893;SDS011;62699;50.534;12.784;2024-02-26T07:03:39;12.88;;;5.93;;
73893;SDS011;62699;50.534;12.784;2024-02-26T07:08:40;9.95;;;4.97;;
73893;SDS011;62699;50.534;12.784;2024-02-26T07:13:40;14.15;;;6.10;;
73893;SDS011;62699;50.534;12.784;2024-02-26T07:18:40;9.95;;;4.50;;
73893;SDS011;62699;50.534;12.784;2024-02-26T07:23:41;14.05;;;5.45;;
73893;SDS011;62699;50.534;12.784;2024-02-26T07:28:41;14.00;;;5.03;;
73893;SDS011;62699;50.534;12.784;2024-02-26T07:33:41;8.93;;;4.13;;
73893;SDS011;62699;50.534;12.784;2024-02-26T07:38:42;10.65;;;4.20;;
73893;SDS011;62699;50.534;12.784;2024-02-26T07:43:42;9.93;;;4.40;;
73893;SDS011;62699;50.534;12.784;2024-02-26T07:48:42;8.65;;;3.83;;
73893;SDS011;62699;50.534;12.784;2024-02-26T07:53:42;9.45;;;4.25;;
73893;SDS011;62699;50.534;12.784;2024-02-26T07:58:43;8.45;;;4.30;;
73893;SDS011;62699;50.534;12.784;2024-02-26T08:03:43;7.05;;;3.65;;
73893;SDS011;62699;50.534;12.784;2024-02-26T08:08:43;8.80;;;4.07;;
73893;SDS011;62699;50.534;12.784;2024-02-26T08:13:44;10.63;;;4.47;;
73893;SDS011;62699;50.534;12.784;2024-02-26T08:18:44;10.82;;;4.72;;
73893;SDS011;62699;50.534;12.784;2024-02-26T08:23:44;12.10;;;4.43;;
73893;SDS011;62699;50.534;12.784;2024-02-26T08:28:45;9.35;;;4.93;;
73893;SDS011;62699;50.534;12.784;2024-02-26T08:33:47;10.15;;;4.53;;
73893;SDS011;62699;50.534;12.784;2024-02-26T08:38:47;10.70;;;4.78;;
73893;SDS011;62699;50.534;12.784;2024-02-26T08:43:48;24.52;;;6.35;;
73893;SDS011;62699;50.534;12.784;2024-02-26T08:48:48;12.98;;;5.68;;
73893;SDS011;62699;50.534;12.784;2024-02-26T08:53:48;13.00;;;5.65;;
73893;SDS011;62699;50.534;12.784;2024-02-26T08:58:50;12.10;;;5.30;;
73893;SDS011;62699;50.534;12.784;2024-02-26T09:03:53;9.73;;;5.25;;
73893;SDS011;62699;50.534;12.784;2024-02-26T09:08:53;10.43;;;5.25;;
73893;SDS011;62699;50.534;12.784;2024-02-26T09:13:54;9.30;;;4.43;;
73893;SDS011;62699;50.534;12.784;2024-02-26T09:18:54;10.57;;;4.93;;
73893;SDS011;62699;50.534;12.784;2024-02-26T09:23:54;8.98;;;4.75;;
73893;SDS011;62699;50.534;12.784;2024-02-26T09:28:54;8.90;;;4.90;;
73893;SDS011;62699;50.534;12.784;2024-02-26T09:33:55;10.87;;;5.30;;
73893;SDS011;62699;50.534;12.784;2024-02-26T09:38:55;9.50;;;4.90;;
73893;SDS011;62699;50.534;12.784;2024-02-26T09:43:56;36.35;;;19.40;;
73893;SDS011;62699;50.534;12.784;2024-02-26T09:48:57;11.80;;;4.90;;
73893;SDS011;62699;50.534;12.784;2024-02-26T09:53:59;9.77;;;4.90;;
73893;SDS011;62699;50.534;12.784;2024-02-26T09:59:01;10.77;;;5.55;;
73893;SDS011;62699;50.534;12.784;2024-02-26T10:04:06;8.75;;;4.88;;
73893;SDS011;62699;50.534;12.784;2024-02-26T10:09:08;8.75;;;4.55;;
73893;SDS011;62699;50.534;12.784;2024-02-26T10:14:09;8.40;;;4.63;;
73893;SDS011;62699;50.534;12.784;2024-02-26T10:19:10;9.35;;;4.78;;
73893;SDS011;62699;50.534;12.784;2024-02-26T10:24:25;9.43;;;5.20;;
73893;SDS011;62699;50.534;12.784;2024-02-26T10:29:26;9.70;;;4.65;;
73893;SDS011;62699;50.534;12.784;2024-02-26T10:34:27;7.13;;;3.85;;
73893;SDS011;62699;50.534;12.784;2024-02-26T10:39:28;8.27;;;4.30;;
73893;SDS011;62699;50.534;12.784;2024-02-26T10:44:28;8.60;;;4.38;;
73893;SDS011;62699;50.534;12.784;2024-02-26T10:49:28;8.65;;;4.32;;
73893;SDS011;62699;50.534;12.784;2024-02-26T10:54:29;9.05;;;3.88;;
73893;SDS011;62699;50.534;12.784;2024-02-26T10:59:29;8.90;;;3.55;;
73893;SDS011;62699;50.534;12.784;2024-02-26T11:04:32;8.05;;;3.83;;
73893;SDS011;62699;50.534;12.784;2024-02-26T11:09:33;8.82;;;3.97;;
73893;SDS011;62699;50.534;12.784;2024-02-26T11:14:34;7.47;;;4.18;;
73893;SDS011;62699;50.534;12.784;2024-02-26T11:19:35;7.07;;;3.90;;
73893;SDS011;62699;50.534;12.784;2024-02-26T11:24:36;10.23;;;4.80;;
73893;SDS011;62699;50.534;12.784;2024-02-26T11:29:52;7.90;;;3.80;;
73893;SDS011;62699;50.534;12.784;2024-02-26T11:34:55;8.73;;;4.05;;
73893;SDS011;62699;50.534;12.784;2024-02-26T11:39:56;9.55;;;4.07;;
73893;SDS011;62699;50.534;12.784;2024-02-26T11:44:59;8.80;;;4.38;;
73893;SDS011;62699;50.534;12.784;2024-02-26T11:50:00;7.95;;;4.35;;
73893;SDS011;62699;50.534;12.784;2024-02-26T11:55:36;8.45;;;4.50;;
73893;SDS011;62699;50.534;12.784;2024-02-26T12:00:36;19.58;;;11.57;;
73893;SDS011;62699;50.534;12.784;2024-02-26T12:05:36;8.27;;;3.95;;
73893;SDS011;62699;50.534;12.784;2024-02-26T12:10:38;8.07;;;4.18;;
73893;SDS011;62699;50.534;12.784;2024-02-26T12:15:41;8.93;;;4.43;;
73893;SDS011;62699;50.534;12.784;2024-02-26T12:20:43;9.18;;;5.70;;
73893;SDS011;62699;50.534;12.784;2024-02-26T12:25:44;9.77;;;4.70;;
73893;SDS011;62699;50.534;12.784;2024-02-26T12:30:44;11.57;;;6.15;;
73893;SDS011;62699;50.534;12.784;2024-02-26T12:35:45;21.67;;;10.48;;
73893;SDS011;62699;50.534;12.784;2024-02-26T12:40:48;14.07;;;8.52;;
73893;SDS011;62699;50.534;12.784;2024-02-26T12:45:49;10.60;;;5.50;;
73893;SDS011;62699;50.534;12.784;2024-02-26T12:50:50;9.07;;;5.10;;
73893;SDS011;62699;50.534;12.784;2024-02-26T12:55:50;11.02;;;6.05;;
73893;SDS011;62699;50.534;12.784;2024-02-26T13:00:51;13.63;;;6.65;;
73893;SDS011;62699;50.534;12.784;2024-02-26T13:05:52;12.05;;;6.78;;
73893;SDS011;62699;50.534;12.784;2024-02-26T13:10:53;13.93;;;7.30;;
73893;SDS011;62699;50.534;12.784;2024-02-26T13:16:03;24.80;;;11.60;;
73893;SDS011;62699;50.534;12.784;2024-02-26T13:21:07;16.52;;;9.95;;
73893;SDS011;62699;50.534;12.784;2024-02-26T13:26:11;11.52;;;7.32;;
73893;SDS011;62699;50.534;12.784;2024-02-26T13:31:12;13.88;;;7.53;;
73893;SDS011;62699;50.534;12.784;2024-02-26T13:36:12;14.63;;;8.25;;
73893;SDS011;62699;50.534;12.784;2024-02-26T13:41:14;15.65;;;8.95;;
73893;SDS011;62699;50.534;12.784;2024-02-26T13:46:15;15.43;;;8.25;;
73893;SDS011;62699;50.534;12.784;2024-02-26T13:51:15;14.15;;;7.90;;
73893;SDS011;62699;50.534;12.784;2024-02-26T13:56:16;11.35;;;6.63;;
73893;SDS011;62699;50.534;12.784;2024-02-26T14:01:17;13.18;;;7.43;;
73893;SDS011;62699;50.534;12.784;2024-02-26T14:06:17;14.82;;;8.00;;
73893;SDS011;62699;50.534;12.784;2024-02-26T14:11:17;17.92;;;10.57;;
73893;SDS011;62699;50.534;12.784;2024-02-26T14:16:18;16.50;;;9.00;;
73893;SDS011;62699;50.534;12.784;2024-02-26T14:21:21;15.40;;;8.98;;
73893;SDS011;62699;50.534;12.784;2024-02-26T14:26:24;16.23;;;9.85;;
73893;SDS011;62699;50.534;12.784;2024-02-26T14:31:25;14.23;;;8.90;;
73893;SDS011;62699;50.534;12.784;2024-02-26T14:36:25;17.00;;;10.10;;
73893;SDS011;62699;50.534;12.784;2024-02-26T14:41:26;17.30;;;9.70;;
73893;SDS011;62699;50.534;12.784;2024-02-26T14:46:26;18.25;;;10.65;;
73893;SDS011;62699;50.534;12.784;2024-02-26T14:51:26;17.77;;;9.50;;
73893;SDS011;62699;50.534;12.784;2024-02-26T14:56:27;21.65;;;10.80;;
73893;SDS011;62699;50.534;12.784;2024-02-26T15:01:27;16.23;;;9.93;;
73893;SDS011;62699;50.534;12.784;2024-02-26T15:06:27;19.58;;;10.50;;
73893;SDS011;62699;50.534;12.784;2024-02-26T15:11:27;19.08;;;11.05;;
73893;SDS011;62699;50.534;12.784;2024-02-26T15:16:28;19.50;;;11.15;;
73893;SDS011;62699;50.534;12.784;2024-02-26T15:21:28;23.40;;;10.77;;
73893;SDS011;62699;50.534;12.784;2024-02-26T15:26:29;21.90;;;11.68;;
73893;SDS011;62699;50.534;12.784;2024-02-26T15:31:29;20.85;;;11.48;;
73893;SDS011;62699;50.534;12.784;2024-02-26T15:36:31;17.90;;;10.93;;
73893;SDS011;62699;50.534;12.784;2024-02-26T15:41:31;20.55;;;12.02;;
73893;SDS011;62699;50.534;12.784;2024-02-26T15:46:32;19.55;;;10.38;;
73893;SDS011;62699;50.534;12.784;2024-02-26T15:51:32;20.88;;;12.13;;
73893;SDS011;62699;50.534;12.784;2024-02-26T15:56:32;24.23;;;12.23;;
73893;SDS011;62699;50.534;12.784;2024-02-26T16:01:33;21.50;;;11.70;;
73893;SDS011;62699;50.534;12.784;2024-02-26T16:06:41;28.77;;;14.50;;
73893;SDS011;62699;50.534;12.784;2024-02-26T16:11:44;24.15;;;13.38;;
73893;SDS011;62699;50.534;12.784;2024-02-26T16:16:47;35.70;;;17.20;;
73893;SDS011;62699;50.534;12.784;2024-02-26T16:21:52;35.03;;;17.63;;
73893;SDS011;62699;50.534;12.784;2024-02-26T16:26:53;24.52;;;13.98;;
73893;SDS011;62699;50.534;12.784;2024-02-26T16:31:53;24.45;;;13.05;;
73893;SDS011;62699;50.534;12.784;2024-02-26T16:36:53;26.48;;;14.55;;
73893;SDS011;62699;50.534;12.784;2024-02-26T16:41:54;20.70;;;10.98;;
73893;SDS011;62699;50.534;12.784;2024-02-26T16:46:54;21.38;;;11.07;;
73893;SDS011;62699;50.534;12.784;2024-02-26T16:51:54;20.70;;;11.27;;
73893;SDS011;62699;50.534;12.784;2024-02-26T16:56:54;19.27;;;10.27;;
73893;SDS011;62699;50.534;12.784;2024-02-26T17:01:55;21.10;;;10.63;;
73893;SDS011;62699;50.534;12.784;2024-02-26T17:06:56;18.77;;;10.50;;
73893;SDS011;62699;50.534;12.784;2024-02-26T17:11:56;22.08;;;11.85;;
73893;SDS011;62699;50.534;12.784;2024-02-26T17:16:57;21.90;;;12.60;;
73893;SDS011;62699;50.534;12.784;2024-02-26T17:21:59;20.73;;;10.77;;
73893;SDS011;62699;50.534;12.784;2024-02-26T17:26:59;21.58;;;10.55;;
73893;SDS011;62699;50.534;12.784;2024-02-26T17:31:59;18.20;;;10.93;;
73893;SDS011;62699;50.534;12.784;2024-02-26T17:37:01;24.60;;;13.30;;
73893;SDS011;62699;50.534;12.784;2024-02-26T17:42:01;21.10;;;10.82;;
73893;SDS011;62699;50.534;12.784;2024-02-26T17:47:02;20.35;;;11.07;;
73893;SDS011;62699;50.534;12.784;2024-02-26T17:52:02;27.05;;;15.05;;
73893;SDS011;62699;50.534;12.784;2024-02-26T17:57:03;29.10;;;16.17;;
73893;SDS011;62699;50.534;12.784;2024-02-26T18:02:03;25.55;;;13.40;;
73893;SDS011;62699;50.534;12.784;2024-02-26T18:07:05;24.50;;;13.02;;
73893;SDS011;62699;50.534;12.784;2024-02-26T18:12:07;26.00;;;13.23;;
73893;SDS011;62699;50.534;12.784;2024-02-26T18:17:08;23.60;;;13.88;;
73893;SDS011;62699;50.534;12.784;2024-02-26T18:22:09;28.30;;;15.05;;
73893;SDS011;62699;50.534;12.784;2024-02-26T18:27:09;28.75;;;14.20;;
73893;SDS011;62699;50.534;12.784;2024-02-26T18:32:09;33.92;;;19.48;;
73893;SDS011;62699;50.534;12.784;2024-02-26T18:37:10;92.07;;;39.25;;
73893;SDS011;62699;50.534;12.784;2024-02-26T18:42:10;28.52;;;16.02;;
73893;SDS011;62699;50.534;12.784;2024-02-26T18:47:12;31.30;;;15.80;;
73893;SDS011;62699;50.534;12.784;2024-02-26T18:52:12;55.08;;;29.73;;
73893;SDS011;62699;50.534;12.784;2024-02-26T18:57:13;32.25;;;17.13;;
73893;SDS011;62699;50.534;12.784;2024-02-26T19:02:13;25.60;;;14.88;;
73893;SDS011;62699;50.534;12.784;2024-02-26T19:07:13;26.83;;;16.00;;
73893;SDS011;62699;50.534;12.784;2024-02-26T19:12:14;38.97;;;20.25;;
73893;SDS011;62699;50.534;12.784;2024-02-26T19:17:14;31.38;;;17.13;;
73893;SDS011;62699;50.534;12.784;2024-02-26T19:22:14;27.52;;;15.25;;
73893;SDS011;62699;50.534;12.784;2024-02-26T19:27:15;27.83;;;15.82;;
73893;SDS011;62699;50.534;12.784;2024-02-26T19:32:15;24.58;;;15.25;;
73893;SDS011;62699;50.534;12.784;2024-02-26T19:37:15;22.98;;;13.00;;
73893;SDS011;62699;50.534;12.784;2024-02-26T19:42:16;24.45;;;13.32;;
73893;SDS011;62699;50.534;12.784;2024-02-26T19:47:16;22.30;;;13.27;;
73893;SDS011;62699;50.534;12.784;2024-02-26T19:52:17;26.33;;;14.15;;
73893;SDS011;62699;50.534;12.784;2024-02-26T19:57:19;29.02;;;15.98;;
73893;SDS011;62699;50.534;12.784;2024-02-26T20:02:19;24.45;;;13.80;;
73893;SDS011;62699;50.534;12.784;2024-02-26T20:07:20;24.25;;;13.30;;
73893;SDS011;62699;50.534;12.784;2024-02-26T20:12:20;29.27;;;13.60;;
73893;SDS011;62699;50.534;12.784;2024-02-26T20:17:20;30.30;;;14.48;;
73893;SDS011;62699;50.534;12.784;2024-02-26T20:22:21;25.83;;;13.88;;
73893;SDS011;62699;50.534;12.784;2024-02-26T20:27:22;23.67;;;12.82;;
73893;SDS011;62699;50.534;12.784;2024-02-26T20:32:23;24.85;;;12.95;;
73893;SDS011;62699;50.534;12.784;2024-02-26T20:37:24;25.92;;;12.57;;
73893;SDS011;62699;50.534;12.784;2024-02-26T20:42:25;23.33;;;13.02;;
73893;SDS011;62699;50.534;12.784;2024-02-26T20:47:25;21.92;;;12.40;;
73893;SDS011;62699;50.534;12.784;2024-02-26T20:52:25;25.02;;;12.35;;
73893;SDS011;62699;50.534;12.784;2024-02-26T20:57:27;21.52;;;11.38;;
73893;SDS011;62699;50.534;12.784;2024-02-26T21:02:27;25.42;;;13.15;;
73893;SDS011;62699;50.534;12.784;2024-02-26T21:07:27;23.95;;;12.55;;
73893;SDS011;62699;50.534;12.784;2024-02-26T21:12:28;21.02;;;12.57;;
73893;SDS011;62699;50.534;12.784;2024-02-26T21:17:28;24.13;;;12.60;;
73893;SDS011;62699;50.534;12.784;2024-02-26T21:22:28;24.98;;;13.00;;
73893;SDS011;62699;50.534;12.784;2024-02-26T21:27:29;27.15;;;14.15;;
73893;SDS011;62699;50.534;12.784;2024-02-26T21:32:29;23.85;;;12.57;;
73893;SDS011;62699;50.534;12.784;2024-02-26T21:37:30;25.38;;;11.80;;
73893;SDS011;62699;50.534;12.784;2024-02-26T21:42:30;25.00;;;12.77;;
73893;SDS011;62699;50.534;12.784;2024-02-26T21:47:31;23.77;;;13.00;;
73893;SDS011;62699;50.534;12.784;2024-02-26T21:52:31;22.42;;;13.00;;
73893;SDS011;62699;50.534;12.784;2024-02-26T21:57:31;23.23;;;12.43;;
73893;SDS011;62699;50.534;12.784;2024-02-26T22:02:32;26.92;;;13.20;;
73893;SDS011;62699;50.534;12.784;2024-02-26T22:07:32;25.92;;;12.65;;
73893;SDS011;62699;50.534;12.784;2024-02-26T22:12:32;20.02;;;12.23;;
73893;SDS011;62699;50.534;12.784;2024-02-26T22:17:35;23.70;;;12.10;;
73893;SDS011;62699;50.534;12.784;2024-02-26T22:22:36;23.85;;;12.15;;
73893;SDS011;62699;50.534;12.784;2024-02-26T22:27:39;25.75;;;12.73;;
73893;SDS011;62699;50.534;12.784;2024-02-26T22:32:39;21.33;;;12.20;;
73893;SDS011;62699;50.534;12.784;2024-02-26T22:37:41;21.80;;;12.45;;
73893;SDS011;62699;50.534;12.784;2024-02-26T22:42:41;20.83;;;11.30;;
73893;SDS011;62699;50.534;12.784;2024-02-26T22:47:41;22.25;;;12.07;;
73893;SDS011;62699;50.534;12.784;2024-02-26T22:52:41;19.75;;;11.20;;
73893;SDS011;62699;50.534;12.784;2024-02-26T22:57:41;19.58;;;10.43;;
73893;SDS011;62699;50.534;12.784;2024-02-26T23:02:42;20.75;;;10.30;;
73893;SDS011;62699;50.534;12.784;2024-02-26T23:07:42;19.63;;;9.73;;
73893;SDS011;62699;50.534;12.784;2024-02-26T23:12:42;15.68;;;9.93;;
73893;SDS011;62699;50.534;12.784;2024-02-26T23:17:43;20.45;;;11.27;;
73893;SDS011;62699;50.534;12.784;2024-02-26T23:22:44;21.20;;;10.15;;
73893;SDS011;62699;50.534;12.784;2024-02-26T23:27:46;18.70;;;10.30;;
73893;SDS011;62699;50.534;12.784;2024-02-26T23:32:47;21.30;;;10.23;;
73893;SDS011;62699;50.534;12.784;2024-02-26T23:37:47;23.55;;;11.48;;
73893;SDS011;62699;50.534;12.784;2024-02-26T23:42:48;21.63;;;10.88;;
73893;SDS011;62699;50.534;12.784;2024-02-26T23:47:48;16.77;;;8.85;;
73893;SDS011;62699;50.534;12.784;2024-02-26T23:52:48;17.48;;;9.88;;
73893;SDS011;62699;50.534;12.784;2024-02-26T23:57:49;20.33;;;9.82;;
